sensor_id;sensor_type;location;lat;lon;timestamp;P1;durP1;ratioP1;P2;durP2;ratioP2
80307;SDS011;69616;43.522;1.348;2023-05-20T00:01:18;15.20;;;4.20;;
80307;SDS011;69616;43.522;1.348;2023-05-20T00:03:44;15.52;;;5.22;;
80307;SDS011;69616;43.522;1.348;2023-05-20T00:06:10;9.23;;;4.00;;
80307;SDS011;69616;43.522;1.348;2023-05-20T00:08:35;10.98;;;4.30;;
80307;SDS011;69616;43.522;1.348;2023-05-20T00:11:00;13.67;;;4.93;;
80307;SDS011;69616;43.522;1.348;2023-05-20T00:13:26;8.50;;;4.00;;
80307;SDS011;69616;43.522;1.348;2023-05-20T00:15:51;13.03;;;4.60;;
80307;SDS011;69616;43.522;1.348;2023-05-20T00:18:17;12.77;;;4.25;;
80307;SDS011;69616;43.522;1.348;2023-05-20T00:20:43;12.63;;;4.67;;
80307;SDS011;69616;43.522;1.348;2023-05-20T00:23:08;13.95;;;4.78;;
80307;SDS011;69616;43.522;1.348;2023-05-20T00:25:34;14.80;;;4.70;;
80307;SDS011;69616;43.522;1.348;2023-05-20T00:27:59;15.10;;;4.57;;
80307;SDS011;69616;43.522;1.348;2023-05-20T00:30:25;11.07;;;4.37;;
80307;SDS011;69616;43.522;1.348;2023-05-20T00:32:50;14.80;;;4.68;;
80307;SDS011;69616;43.522;1.348;2023-05-20T00:35:15;13.50;;;4.63;;
80307;SDS011;69616;43.522;1.348;2023-05-20T00:37:41;17.60;;;4.37;;
80307;SDS011;69616;43.522;1.348;2023-05-20T00:40:07;14.82;;;4.32;;
80307;SDS011;69616;43.522;1.348;2023-05-20T00:42:33;12.63;;;4.47;;
80307;SDS011;69616;43.522;1.348;2023-05-20T00:44:58;10.85;;;4.55;;
80307;SDS011;69616;43.522;1.348;2023-05-20T00:47:28;14.97;;;4.70;;
80307;SDS011;69616;43.522;1.348;2023-05-20T00:49:55;10.43;;;4.63;;
80307;SDS011;69616;43.522;1.348;2023-05-20T00:52:21;14.85;;;5.15;;
80307;SDS011;69616;43.522;1.348;2023-05-20T00:54:47;13.37;;;4.63;;
80307;SDS011;69616;43.522;1.348;2023-05-20T00:57:13;12.57;;;4.40;;
80307;SDS011;69616;43.522;1.348;2023-05-20T00:59:40;10.55;;;4.55;;
80307;SDS011;69616;43.522;1.348;2023-05-20T01:02:06;10.30;;;4.47;;
80307;SDS011;69616;43.522;1.348;2023-05-20T01:04:31;11.93;;;4.27;;
80307;SDS011;69616;43.522;1.348;2023-05-20T01:06:58;13.90;;;4.85;;
80307;SDS011;69616;43.522;1.348;2023-05-20T01:09:26;10.13;;;4.88;;
80307;SDS011;69616;43.522;1.348;2023-05-20T01:11:57;13.32;;;4.80;;
80307;SDS011;69616;43.522;1.348;2023-05-20T01:14:28;10.93;;;4.22;;
80307;SDS011;69616;43.522;1.348;2023-05-20T01:17:00;11.97;;;4.43;;
80307;SDS011;69616;43.522;1.348;2023-05-20T01:21:59;14.90;;;4.60;;
80307;SDS011;69616;43.522;1.348;2023-05-20T01:24:27;20.27;;;4.70;;
80307;SDS011;69616;43.522;1.348;2023-05-20T01:26:52;11.65;;;5.25;;
80307;SDS011;69616;43.522;1.348;2023-05-20T01:29:18;14.40;;;4.67;;
80307;SDS011;69616;43.522;1.348;2023-05-20T01:31:43;14.93;;;5.17;;
80307;SDS011;69616;43.522;1.348;2023-05-20T01:34:11;13.23;;;4.70;;
80307;SDS011;69616;43.522;1.348;2023-05-20T01:36:38;11.88;;;4.55;;
80307;SDS011;69616;43.522;1.348;2023-05-20T01:39:04;13.85;;;4.68;;
80307;SDS011;69616;43.522;1.348;2023-05-20T01:41:30;13.15;;;5.00;;
80307;SDS011;69616;43.522;1.348;2023-05-20T01:43:58;16.53;;;5.37;;
80307;SDS011;69616;43.522;1.348;2023-05-20T01:46:24;13.52;;;5.22;;
80307;SDS011;69616;43.522;1.348;2023-05-20T01:48:49;10.83;;;5.30;;
80307;SDS011;69616;43.522;1.348;2023-05-20T01:51:15;14.57;;;5.32;;
80307;SDS011;69616;43.522;1.348;2023-05-20T01:53:41;12.02;;;5.00;;
80307;SDS011;69616;43.522;1.348;2023-05-20T01:56:07;14.00;;;5.13;;
80307;SDS011;69616;43.522;1.348;2023-05-20T01:58:32;12.17;;;4.97;;
80307;SDS011;69616;43.522;1.348;2023-05-20T02:00:58;13.60;;;5.57;;
80307;SDS011;69616;43.522;1.348;2023-05-20T02:03:24;12.60;;;4.77;;
80307;SDS011;69616;43.522;1.348;2023-05-20T02:05:49;13.63;;;4.93;;
80307;SDS011;69616;43.522;1.348;2023-05-20T02:08:15;14.73;;;5.47;;
80307;SDS011;69616;43.522;1.348;2023-05-20T02:10:40;14.37;;;5.30;;
80307;SDS011;69616;43.522;1.348;2023-05-20T02:13:05;12.07;;;5.27;;
80307;SDS011;69616;43.522;1.348;2023-05-20T02:15:31;13.27;;;5.63;;
80307;SDS011;69616;43.522;1.348;2023-05-20T02:17:56;16.20;;;5.57;;
80307;SDS011;69616;43.522;1.348;2023-05-20T02:20:22;13.73;;;5.23;;
80307;SDS011;69616;43.522;1.348;2023-05-20T02:22:47;13.77;;;5.23;;
80307;SDS011;69616;43.522;1.348;2023-05-20T02:25:13;11.30;;;5.13;;
80307;SDS011;69616;43.522;1.348;2023-05-20T02:27:38;11.27;;;4.87;;
80307;SDS011;69616;43.522;1.348;2023-05-20T02:30:04;14.35;;;5.10;;
80307;SDS011;69616;43.522;1.348;2023-05-20T02:32:31;14.35;;;5.50;;
80307;SDS011;69616;43.522;1.348;2023-05-20T02:34:57;11.77;;;4.90;;
80307;SDS011;69616;43.522;1.348;2023-05-20T02:37:22;10.85;;;5.07;;
80307;SDS011;69616;43.522;1.348;2023-05-20T02:39:48;13.37;;;5.30;;
80307;SDS011;69616;43.522;1.348;2023-05-20T02:42:14;11.23;;;4.90;;
80307;SDS011;69616;43.522;1.348;2023-05-20T02:44:39;11.93;;;5.30;;
80307;SDS011;69616;43.522;1.348;2023-05-20T02:47:05;13.03;;;5.43;;
80307;SDS011;69616;43.522;1.348;2023-05-20T02:49:30;16.57;;;6.30;;
80307;SDS011;69616;43.522;1.348;2023-05-20T02:51:56;12.37;;;4.90;;
80307;SDS011;69616;43.522;1.348;2023-05-20T02:54:21;13.33;;;5.90;;
80307;SDS011;69616;43.522;1.348;2023-05-20T02:56:46;19.40;;;5.50;;
80307;SDS011;69616;43.522;1.348;2023-05-20T02:59:12;15.50;;;5.27;;
80307;SDS011;69616;43.522;1.348;2023-05-20T03:01:37;13.40;;;5.22;;
80307;SDS011;69616;43.522;1.348;2023-05-20T03:04:04;17.13;;;5.03;;
80307;SDS011;69616;43.522;1.348;2023-05-20T03:06:30;14.10;;;4.95;;
80307;SDS011;69616;43.522;1.348;2023-05-20T03:08:58;14.32;;;5.60;;
80307;SDS011;69616;43.522;1.348;2023-05-20T03:11:23;12.73;;;5.67;;
80307;SDS011;69616;43.522;1.348;2023-05-20T03:13:49;13.27;;;5.37;;
80307;SDS011;69616;43.522;1.348;2023-05-20T03:16:14;14.90;;;5.80;;
80307;SDS011;69616;43.522;1.348;2023-05-20T03:18:40;14.27;;;5.88;;
80307;SDS011;69616;43.522;1.348;2023-05-20T03:21:06;14.02;;;5.78;;
80307;SDS011;69616;43.522;1.348;2023-05-20T03:23:32;12.83;;;5.87;;
80307;SDS011;69616;43.522;1.348;2023-05-20T03:25:57;14.75;;;6.22;;
80307;SDS011;69616;43.522;1.348;2023-05-20T03:28:23;12.60;;;5.57;;
80307;SDS011;69616;43.522;1.348;2023-05-20T03:30:48;15.77;;;6.10;;
80307;SDS011;69616;43.522;1.348;2023-05-20T03:33:13;14.23;;;6.23;;
80307;SDS011;69616;43.522;1.348;2023-05-20T03:35:39;14.30;;;5.65;;
80307;SDS011;69616;43.522;1.348;2023-05-20T03:38:05;15.73;;;6.40;;
80307;SDS011;69616;43.522;1.348;2023-05-20T03:40:30;16.13;;;6.55;;
80307;SDS011;69616;43.522;1.348;2023-05-20T03:42:56;17.47;;;6.20;;
80307;SDS011;69616;43.522;1.348;2023-05-20T03:45:21;18.53;;;6.40;;
80307;SDS011;69616;43.522;1.348;2023-05-20T03:47:47;14.80;;;6.10;;
80307;SDS011;69616;43.522;1.348;2023-05-20T03:50:12;18.60;;;6.13;;
80307;SDS011;69616;43.522;1.348;2023-05-20T03:52:38;15.97;;;5.63;;
80307;SDS011;69616;43.522;1.348;2023-05-20T03:55:04;20.45;;;6.88;;
80307;SDS011;69616;43.522;1.348;2023-05-20T03:57:30;16.90;;;6.83;;
80307;SDS011;69616;43.522;1.348;2023-05-20T03:59:56;15.75;;;6.57;;
80307;SDS011;69616;43.522;1.348;2023-05-20T04:02:21;14.63;;;5.90;;
80307;SDS011;69616;43.522;1.348;2023-05-20T04:04:47;13.33;;;6.20;;
80307;SDS011;69616;43.522;1.348;2023-05-20T04:07:12;22.23;;;6.70;;
80307;SDS011;69616;43.522;1.348;2023-05-20T04:09:37;16.08;;;6.60;;
80307;SDS011;69616;43.522;1.348;2023-05-20T04:12:03;14.30;;;6.43;;
80307;SDS011;69616;43.522;1.348;2023-05-20T04:14:30;13.48;;;6.40;;
80307;SDS011;69616;43.522;1.348;2023-05-20T04:16:55;12.60;;;5.93;;
80307;SDS011;69616;43.522;1.348;2023-05-20T04:19:20;15.53;;;6.53;;
80307;SDS011;69616;43.522;1.348;2023-05-20T04:21:48;14.77;;;6.25;;
80307;SDS011;69616;43.522;1.348;2023-05-20T04:24:13;19.38;;;6.97;;
80307;SDS011;69616;43.522;1.348;2023-05-20T04:26:39;17.20;;;6.50;;
80307;SDS011;69616;43.522;1.348;2023-05-20T04:29:04;14.93;;;6.17;;
80307;SDS011;69616;43.522;1.348;2023-05-20T04:31:30;16.60;;;6.37;;
80307;SDS011;69616;43.522;1.348;2023-05-20T04:33:55;17.00;;;7.25;;
80307;SDS011;69616;43.522;1.348;2023-05-20T04:36:21;15.38;;;6.20;;
80307;SDS011;69616;43.522;1.348;2023-05-20T04:38:52;17.20;;;6.43;;
80307;SDS011;69616;43.522;1.348;2023-05-20T04:41:18;17.83;;;6.55;;
80307;SDS011;69616;43.522;1.348;2023-05-20T04:43:44;17.33;;;6.63;;
80307;SDS011;69616;43.522;1.348;2023-05-20T04:46:09;19.85;;;6.75;;
80307;SDS011;69616;43.522;1.348;2023-05-20T04:48:35;15.33;;;6.37;;
80307;SDS011;69616;43.522;1.348;2023-05-20T04:51:01;16.20;;;6.55;;
80307;SDS011;69616;43.522;1.348;2023-05-20T04:53:27;15.82;;;6.30;;
80307;SDS011;69616;43.522;1.348;2023-05-20T04:55:54;14.80;;;6.97;;
80307;SDS011;69616;43.522;1.348;2023-05-20T04:58:20;23.90;;;6.95;;
80307;SDS011;69616;43.522;1.348;2023-05-20T05:00:48;17.27;;;6.80;;
80307;SDS011;69616;43.522;1.348;2023-05-20T05:03:15;18.75;;;6.70;;
80307;SDS011;69616;43.522;1.348;2023-05-20T05:05:41;19.05;;;7.65;;
80307;SDS011;69616;43.522;1.348;2023-05-20T05:08:07;17.07;;;7.33;;
80307;SDS011;69616;43.522;1.348;2023-05-20T05:10:34;14.70;;;6.55;;
80307;SDS011;69616;43.522;1.348;2023-05-20T05:13:00;15.63;;;6.38;;
80307;SDS011;69616;43.522;1.348;2023-05-20T05:15:25;17.33;;;6.43;;
80307;SDS011;69616;43.522;1.348;2023-05-20T05:17:51;21.38;;;7.05;;
80307;SDS011;69616;43.522;1.348;2023-05-20T05:20:17;22.77;;;7.30;;
80307;SDS011;69616;43.522;1.348;2023-05-20T05:22:43;15.52;;;6.55;;
80307;SDS011;69616;43.522;1.348;2023-05-20T05:25:08;22.43;;;7.97;;
80307;SDS011;69616;43.522;1.348;2023-05-20T05:27:34;15.70;;;6.90;;
80307;SDS011;69616;43.522;1.348;2023-05-20T05:30:01;19.85;;;6.65;;
80307;SDS011;69616;43.522;1.348;2023-05-20T05:32:27;14.75;;;6.63;;
80307;SDS011;69616;43.522;1.348;2023-05-20T05:34:53;15.63;;;7.80;;
80307;SDS011;69616;43.522;1.348;2023-05-20T05:37:18;20.47;;;7.53;;
80307;SDS011;69616;43.522;1.348;2023-05-20T05:39:45;20.38;;;6.97;;
80307;SDS011;69616;43.522;1.348;2023-05-20T05:42:10;16.67;;;6.20;;
80307;SDS011;69616;43.522;1.348;2023-05-20T05:44:36;17.50;;;7.70;;
80307;SDS011;69616;43.522;1.348;2023-05-20T05:47:01;19.63;;;7.60;;
80307;SDS011;69616;43.522;1.348;2023-05-20T05:49:26;17.87;;;7.13;;
80307;SDS011;69616;43.522;1.348;2023-05-20T05:51:52;16.87;;;7.23;;
80307;SDS011;69616;43.522;1.348;2023-05-20T05:54:17;18.50;;;7.03;;
80307;SDS011;69616;43.522;1.348;2023-05-20T05:56:45;18.95;;;7.22;;
80307;SDS011;69616;43.522;1.348;2023-05-20T05:59:10;17.97;;;6.63;;
80307;SDS011;69616;43.522;1.348;2023-05-20T06:01:36;17.83;;;6.70;;
80307;SDS011;69616;43.522;1.348;2023-05-20T06:04:01;18.33;;;6.93;;
80307;SDS011;69616;43.522;1.348;2023-05-20T06:06:27;15.52;;;7.30;;
80307;SDS011;69616;43.522;1.348;2023-05-20T06:08:52;17.83;;;6.50;;
80307;SDS011;69616;43.522;1.348;2023-05-20T06:11:17;17.07;;;6.47;;
80307;SDS011;69616;43.522;1.348;2023-05-20T06:13:43;21.17;;;6.90;;
80307;SDS011;69616;43.522;1.348;2023-05-20T06:16:08;19.03;;;7.47;;
80307;SDS011;69616;43.522;1.348;2023-05-20T06:18:34;21.17;;;7.73;;
80307;SDS011;69616;43.522;1.348;2023-05-20T06:20:59;20.20;;;7.17;;
80307;SDS011;69616;43.522;1.348;2023-05-20T06:23:25;17.97;;;7.53;;
80307;SDS011;69616;43.522;1.348;2023-05-20T06:25:50;19.25;;;7.68;;
80307;SDS011;69616;43.522;1.348;2023-05-20T06:28:16;17.67;;;7.33;;
80307;SDS011;69616;43.522;1.348;2023-05-20T06:30:42;17.92;;;6.60;;
80307;SDS011;69616;43.522;1.348;2023-05-20T06:33:07;16.83;;;6.53;;
80307;SDS011;69616;43.522;1.348;2023-05-20T06:35:33;15.27;;;6.78;;
80307;SDS011;69616;43.522;1.348;2023-05-20T06:38:01;18.93;;;6.87;;
80307;SDS011;69616;43.522;1.348;2023-05-20T06:40:27;14.00;;;6.65;;
80307;SDS011;69616;43.522;1.348;2023-05-20T06:42:52;16.77;;;6.80;;
80307;SDS011;69616;43.522;1.348;2023-05-20T06:45:18;19.35;;;6.75;;
80307;SDS011;69616;43.522;1.348;2023-05-20T06:47:44;15.70;;;6.77;;
80307;SDS011;69616;43.522;1.348;2023-05-20T06:50:10;13.93;;;6.32;;
80307;SDS011;69616;43.522;1.348;2023-05-20T06:52:36;15.97;;;6.40;;
80307;SDS011;69616;43.522;1.348;2023-05-20T06:55:02;18.27;;;7.10;;
80307;SDS011;69616;43.522;1.348;2023-05-20T06:57:28;14.70;;;6.35;;
80307;SDS011;69616;43.522;1.348;2023-05-20T06:59:53;14.57;;;6.50;;
80307;SDS011;69616;43.522;1.348;2023-05-20T07:02:20;18.17;;;6.60;;
80307;SDS011;69616;43.522;1.348;2023-05-20T07:04:45;15.57;;;6.50;;
80307;SDS011;69616;43.522;1.348;2023-05-20T07:07:11;16.03;;;6.33;;
80307;SDS011;69616;43.522;1.348;2023-05-20T07:09:36;15.63;;;6.63;;
80307;SDS011;69616;43.522;1.348;2023-05-20T07:12:01;17.80;;;6.20;;
80307;SDS011;69616;43.522;1.348;2023-05-20T07:14:27;17.10;;;7.17;;
80307;SDS011;69616;43.522;1.348;2023-05-20T07:16:52;17.57;;;7.50;;
80307;SDS011;69616;43.522;1.348;2023-05-20T07:19:18;16.95;;;6.50;;
80307;SDS011;69616;43.522;1.348;2023-05-20T07:21:43;14.80;;;6.83;;
80307;SDS011;69616;43.522;1.348;2023-05-20T07:24:09;14.83;;;6.27;;
80307;SDS011;69616;43.522;1.348;2023-05-20T07:26:34;15.43;;;6.40;;
80307;SDS011;69616;43.522;1.348;2023-05-20T07:29:01;20.33;;;6.50;;
80307;SDS011;69616;43.522;1.348;2023-05-20T07:31:27;17.33;;;6.70;;
80307;SDS011;69616;43.522;1.348;2023-05-20T07:33:53;17.90;;;6.63;;
80307;SDS011;69616;43.522;1.348;2023-05-20T07:36:18;12.43;;;6.10;;
80307;SDS011;69616;43.522;1.348;2023-05-20T07:38:44;15.37;;;6.20;;
80307;SDS011;69616;43.522;1.348;2023-05-20T07:41:09;17.77;;;6.53;;
80307;SDS011;69616;43.522;1.348;2023-05-20T07:43:35;14.03;;;6.13;;
80307;SDS011;69616;43.522;1.348;2023-05-20T07:46:01;14.90;;;5.80;;
80307;SDS011;69616;43.522;1.348;2023-05-20T07:48:26;12.20;;;5.47;;
80307;SDS011;69616;43.522;1.348;2023-05-20T07:50:52;16.13;;;6.10;;
80307;SDS011;69616;43.522;1.348;2023-05-20T07:53:17;19.43;;;6.27;;
80307;SDS011;69616;43.522;1.348;2023-05-20T07:55:43;14.13;;;5.47;;
80307;SDS011;69616;43.522;1.348;2023-05-20T07:58:09;14.95;;;5.72;;
80307;SDS011;69616;43.522;1.348;2023-05-20T08:00:34;12.60;;;5.90;;
80307;SDS011;69616;43.522;1.348;2023-05-20T08:03:00;16.02;;;5.78;;
80307;SDS011;69616;43.522;1.348;2023-05-20T08:05:25;13.33;;;5.70;;
80307;SDS011;69616;43.522;1.348;2023-05-20T08:07:51;13.70;;;5.00;;
80307;SDS011;69616;43.522;1.348;2023-05-20T08:10:16;12.70;;;6.28;;
80307;SDS011;69616;43.522;1.348;2023-05-20T08:12:41;13.33;;;5.37;;
80307;SDS011;69616;43.522;1.348;2023-05-20T08:15:07;14.80;;;5.53;;
80307;SDS011;69616;43.522;1.348;2023-05-20T08:17:33;14.43;;;5.40;;
80307;SDS011;69616;43.522;1.348;2023-05-20T08:19:59;12.03;;;5.23;;
80307;SDS011;69616;43.522;1.348;2023-05-20T08:22:25;13.45;;;5.20;;
80307;SDS011;69616;43.522;1.348;2023-05-20T08:24:50;13.70;;;5.30;;
80307;SDS011;69616;43.522;1.348;2023-05-20T08:27:16;13.00;;;5.10;;
80307;SDS011;69616;43.522;1.348;2023-05-20T08:29:43;13.20;;;4.80;;
80307;SDS011;69616;43.522;1.348;2023-05-20T08:32:09;11.15;;;5.38;;
80307;SDS011;69616;43.522;1.348;2023-05-20T08:34:35;13.20;;;5.17;;
80307;SDS011;69616;43.522;1.348;2023-05-20T08:37:00;13.90;;;5.35;;
80307;SDS011;69616;43.522;1.348;2023-05-20T08:39:26;14.07;;;5.43;;
80307;SDS011;69616;43.522;1.348;2023-05-20T08:41:52;12.10;;;4.93;;
80307;SDS011;69616;43.522;1.348;2023-05-20T08:44:18;11.80;;;4.53;;
80307;SDS011;69616;43.522;1.348;2023-05-20T08:46:45;13.02;;;4.68;;
80307;SDS011;69616;43.522;1.348;2023-05-20T08:49:12;14.15;;;4.40;;
80307;SDS011;69616;43.522;1.348;2023-05-20T08:51:38;12.43;;;4.57;;
80307;SDS011;69616;43.522;1.348;2023-05-20T08:54:03;11.40;;;4.23;;
80307;SDS011;69616;43.522;1.348;2023-05-20T08:56:30;15.27;;;5.10;;
80307;SDS011;69616;43.522;1.348;2023-05-20T08:58:57;12.02;;;4.68;;
80307;SDS011;69616;43.522;1.348;2023-05-20T09:01:23;15.40;;;4.87;;
80307;SDS011;69616;43.522;1.348;2023-05-20T09:03:50;10.82;;;4.50;;
80307;SDS011;69616;43.522;1.348;2023-05-20T09:06:16;13.82;;;4.90;;
80307;SDS011;69616;43.522;1.348;2023-05-20T09:08:44;11.83;;;4.13;;
80307;SDS011;69616;43.522;1.348;2023-05-20T09:11:10;20.83;;;9.38;;
80307;SDS011;69616;43.522;1.348;2023-05-20T09:13:36;14.20;;;5.93;;
80307;SDS011;69616;43.522;1.348;2023-05-20T09:16:02;12.27;;;4.67;;
80307;SDS011;69616;43.522;1.348;2023-05-20T09:18:28;11.17;;;4.50;;
80307;SDS011;69616;43.522;1.348;2023-05-20T09:20:53;10.70;;;4.18;;
80307;SDS011;69616;43.522;1.348;2023-05-20T09:23:19;11.77;;;4.23;;
80307;SDS011;69616;43.522;1.348;2023-05-20T09:25:49;12.70;;;4.40;;
80307;SDS011;69616;43.522;1.348;2023-05-20T09:28:19;14.23;;;5.53;;
80307;SDS011;69616;43.522;1.348;2023-05-20T09:30:49;10.02;;;3.97;;
80307;SDS011;69616;43.522;1.348;2023-05-20T09:33:15;12.52;;;4.40;;
80307;SDS011;69616;43.522;1.348;2023-05-20T09:35:42;15.73;;;4.33;;
80307;SDS011;69616;43.522;1.348;2023-05-20T09:38:07;10.48;;;4.10;;
80307;SDS011;69616;43.522;1.348;2023-05-20T09:40:35;12.23;;;3.65;;
80307;SDS011;69616;43.522;1.348;2023-05-20T09:43:02;16.33;;;5.88;;
80307;SDS011;69616;43.522;1.348;2023-05-20T09:45:30;11.37;;;3.97;;
80307;SDS011;69616;43.522;1.348;2023-05-20T09:47:55;10.07;;;4.15;;
80307;SDS011;69616;43.522;1.348;2023-05-20T09:50:23;12.70;;;4.10;;
80307;SDS011;69616;43.522;1.348;2023-05-20T09:52:49;11.67;;;3.87;;
80307;SDS011;69616;43.522;1.348;2023-05-20T09:55:16;15.10;;;4.00;;
80307;SDS011;69616;43.522;1.348;2023-05-20T09:57:43;10.02;;;3.90;;
80307;SDS011;69616;43.522;1.348;2023-05-20T10:00:09;11.52;;;3.92;;
80307;SDS011;69616;43.522;1.348;2023-05-20T10:02:39;8.73;;;3.53;;
80307;SDS011;69616;43.522;1.348;2023-05-20T10:05:10;12.03;;;4.13;;
80307;SDS011;69616;43.522;1.348;2023-05-20T10:07:53;12.00;;;4.10;;
80307;SDS011;69616;43.522;1.348;2023-05-20T10:13:17;9.43;;;3.80;;
80307;SDS011;69616;43.522;1.348;2023-05-20T10:21:35;10.75;;;3.50;;
80307;SDS011;69616;43.522;1.348;2023-05-20T10:24:08;10.10;;;3.10;;
80307;SDS011;69616;43.522;1.348;2023-05-20T10:26:38;12.55;;;3.05;;
80307;SDS011;69616;43.522;1.348;2023-05-20T10:29:14;10.25;;;3.42;;
80307;SDS011;69616;43.522;1.348;2023-05-20T10:31:44;8.17;;;3.00;;
80307;SDS011;69616;43.522;1.348;2023-05-20T10:34:19;8.85;;;2.95;;
80307;SDS011;69616;43.522;1.348;2023-05-20T10:39:17;9.65;;;3.10;;
80307;SDS011;69616;43.522;1.348;2023-05-20T10:41:43;11.20;;;3.30;;
80307;SDS011;69616;43.522;1.348;2023-05-20T10:44:09;11.23;;;3.37;;
80307;SDS011;69616;43.522;1.348;2023-05-20T10:46:34;9.03;;;3.60;;
80307;SDS011;69616;43.522;1.348;2023-05-20T10:49:03;10.43;;;3.47;;
80307;SDS011;69616;43.522;1.348;2023-05-20T10:51:29;11.07;;;3.00;;
80307;SDS011;69616;43.522;1.348;2023-05-20T10:53:56;8.48;;;2.85;;
80307;SDS011;69616;43.522;1.348;2023-05-20T10:56:23;9.50;;;3.03;;
80307;SDS011;69616;43.522;1.348;2023-05-20T10:58:53;9.10;;;3.10;;
80307;SDS011;69616;43.522;1.348;2023-05-20T11:01:22;8.20;;;2.80;;
80307;SDS011;69616;43.522;1.348;2023-05-20T11:03:49;9.27;;;2.97;;
80307;SDS011;69616;43.522;1.348;2023-05-20T11:06:16;9.82;;;3.80;;
80307;SDS011;69616;43.522;1.348;2023-05-20T11:08:43;9.23;;;3.03;;
80307;SDS011;69616;43.522;1.348;2023-05-20T11:11:12;12.95;;;3.40;;
80307;SDS011;69616;43.522;1.348;2023-05-20T11:13:38;9.10;;;2.87;;
80307;SDS011;69616;43.522;1.348;2023-05-20T11:16:04;10.85;;;3.47;;
80307;SDS011;69616;43.522;1.348;2023-05-20T11:18:30;7.95;;;2.70;;
80307;SDS011;69616;43.522;1.348;2023-05-20T11:20:59;8.37;;;2.60;;
80307;SDS011;69616;43.522;1.348;2023-05-20T11:23:26;6.57;;;2.33;;
80307;SDS011;69616;43.522;1.348;2023-05-20T11:25:53;9.18;;;2.55;;
80307;SDS011;69616;43.522;1.348;2023-05-20T11:28:20;9.35;;;3.05;;
80307;SDS011;69616;43.522;1.348;2023-05-20T11:30:46;7.33;;;2.37;;
80307;SDS011;69616;43.522;1.348;2023-05-20T11:33:13;7.90;;;2.85;;
80307;SDS011;69616;43.522;1.348;2023-05-20T11:35:50;6.78;;;2.90;;
80307;SDS011;69616;43.522;1.348;2023-05-20T11:38:17;12.30;;;3.35;;
80307;SDS011;69616;43.522;1.348;2023-05-20T11:40:50;8.20;;;2.83;;
80307;SDS011;69616;43.522;1.348;2023-05-20T11:43:16;9.93;;;3.73;;
80307;SDS011;69616;43.522;1.348;2023-05-20T11:45:52;7.82;;;2.47;;
80307;SDS011;69616;43.522;1.348;2023-05-20T11:48:20;6.80;;;2.45;;
80307;SDS011;69616;43.522;1.348;2023-05-20T11:50:46;7.93;;;2.15;;
80307;SDS011;69616;43.522;1.348;2023-05-20T11:53:19;8.95;;;2.88;;
80307;SDS011;69616;43.522;1.348;2023-05-20T11:58:15;6.15;;;1.88;;
80307;SDS011;69616;43.522;1.348;2023-05-20T12:00:43;6.65;;;2.15;;
80307;SDS011;69616;43.522;1.348;2023-05-20T12:03:08;7.07;;;2.20;;
80307;SDS011;69616;43.522;1.348;2023-05-20T12:05:35;6.70;;;2.22;;
80307;SDS011;69616;43.522;1.348;2023-05-20T12:08:00;6.57;;;2.23;;
80307;SDS011;69616;43.522;1.348;2023-05-20T12:10:25;8.50;;;2.30;;
80307;SDS011;69616;43.522;1.348;2023-05-20T12:12:51;5.82;;;2.20;;
80307;SDS011;69616;43.522;1.348;2023-05-20T12:15:16;8.17;;;2.50;;
80307;SDS011;69616;43.522;1.348;2023-05-20T12:17:46;9.67;;;2.67;;
80307;SDS011;69616;43.522;1.348;2023-05-20T12:20:14;8.32;;;2.20;;
80307;SDS011;69616;43.522;1.348;2023-05-20T12:22:41;7.72;;;2.45;;
80307;SDS011;69616;43.522;1.348;2023-05-20T12:25:14;10.23;;;2.37;;
80307;SDS011;69616;43.522;1.348;2023-05-20T12:27:41;7.53;;;2.17;;
80307;SDS011;69616;43.522;1.348;2023-05-20T12:30:07;6.50;;;1.95;;
80307;SDS011;69616;43.522;1.348;2023-05-20T12:32:34;7.35;;;2.20;;
80307;SDS011;69616;43.522;1.348;2023-05-20T12:35:00;6.25;;;2.20;;
80307;SDS011;69616;43.522;1.348;2023-05-20T12:37:26;7.47;;;2.50;;
80307;SDS011;69616;43.522;1.348;2023-05-20T12:39:52;8.30;;;2.10;;
80307;SDS011;69616;43.522;1.348;2023-05-20T12:42:17;5.57;;;1.85;;
80307;SDS011;69616;43.522;1.348;2023-05-20T12:44:42;7.00;;;2.13;;
80307;SDS011;69616;43.522;1.348;2023-05-20T12:47:08;6.63;;;2.30;;
80307;SDS011;69616;43.522;1.348;2023-05-20T12:49:33;8.20;;;2.07;;
80307;SDS011;69616;43.522;1.348;2023-05-20T12:51:59;6.47;;;2.03;;
80307;SDS011;69616;43.522;1.348;2023-05-20T12:54:24;8.43;;;1.97;;
80307;SDS011;69616;43.522;1.348;2023-05-20T12:56:52;6.45;;;1.80;;
80307;SDS011;69616;43.522;1.348;2023-05-20T12:59:21;6.47;;;2.25;;
80307;SDS011;69616;43.522;1.348;2023-05-20T13:01:46;7.27;;;1.87;;
80307;SDS011;69616;43.522;1.348;2023-05-20T13:04:12;7.57;;;1.87;;
80307;SDS011;69616;43.522;1.348;2023-05-20T13:06:37;8.97;;;2.30;;
80307;SDS011;69616;43.522;1.348;2023-05-20T13:09:03;9.13;;;2.00;;
80307;SDS011;69616;43.522;1.348;2023-05-20T13:11:28;6.47;;;1.80;;
80307;SDS011;69616;43.522;1.348;2023-05-20T13:13:54;5.97;;;2.10;;
80307;SDS011;69616;43.522;1.348;2023-05-20T13:16:23;7.43;;;2.00;;
80307;SDS011;69616;43.522;1.348;2023-05-20T13:18:49;8.23;;;2.28;;
80307;SDS011;69616;43.522;1.348;2023-05-20T13:21:14;7.20;;;2.33;;
80307;SDS011;69616;43.522;1.348;2023-05-20T13:23:40;7.72;;;2.30;;
80307;SDS011;69616;43.522;1.348;2023-05-20T13:26:06;7.47;;;2.35;;
80307;SDS011;69616;43.522;1.348;2023-05-20T13:28:32;7.60;;;2.50;;
80307;SDS011;69616;43.522;1.348;2023-05-20T13:30:57;8.05;;;2.30;;
80307;SDS011;69616;43.522;1.348;2023-05-20T13:33:23;8.43;;;2.63;;
80307;SDS011;69616;43.522;1.348;2023-05-20T13:35:48;7.80;;;2.43;;
80307;SDS011;69616;43.522;1.348;2023-05-20T13:38:14;7.50;;;2.45;;
80307;SDS011;69616;43.522;1.348;2023-05-20T13:40:40;9.97;;;2.60;;
80307;SDS011;69616;43.522;1.348;2023-05-20T13:43:06;6.80;;;2.72;;
80307;SDS011;69616;43.522;1.348;2023-05-20T13:45:31;9.47;;;3.10;;
80307;SDS011;69616;43.522;1.348;2023-05-20T13:47:56;7.57;;;2.50;;
80307;SDS011;69616;43.522;1.348;2023-05-20T13:50:22;7.37;;;2.10;;
80307;SDS011;69616;43.522;1.348;2023-05-20T13:52:47;9.77;;;2.30;;
80307;SDS011;69616;43.522;1.348;2023-05-20T13:55:13;11.87;;;2.80;;
80307;SDS011;69616;43.522;1.348;2023-05-20T13:57:40;6.40;;;2.33;;
80307;SDS011;69616;43.522;1.348;2023-05-20T14:00:06;8.43;;;2.85;;
80307;SDS011;69616;43.522;1.348;2023-05-20T14:02:33;8.05;;;2.58;;
80307;SDS011;69616;43.522;1.348;2023-05-20T14:04:58;10.10;;;3.20;;
80307;SDS011;69616;43.522;1.348;2023-05-20T14:07:24;9.70;;;2.70;;
80307;SDS011;69616;43.522;1.348;2023-05-20T14:09:49;7.07;;;2.27;;
80307;SDS011;69616;43.522;1.348;2023-05-20T14:12:15;10.97;;;2.63;;
80307;SDS011;69616;43.522;1.348;2023-05-20T14:14:40;8.77;;;2.43;;
80307;SDS011;69616;43.522;1.348;2023-05-20T14:17:06;8.17;;;2.57;;
80307;SDS011;69616;43.522;1.348;2023-05-20T14:19:31;9.60;;;2.70;;
80307;SDS011;69616;43.522;1.348;2023-05-20T14:21:56;6.97;;;2.37;;
80307;SDS011;69616;43.522;1.348;2023-05-20T14:24:25;6.97;;;2.55;;
80307;SDS011;69616;43.522;1.348;2023-05-20T14:26:50;7.30;;;2.33;;
80307;SDS011;69616;43.522;1.348;2023-05-20T14:29:16;7.27;;;2.37;;
80307;SDS011;69616;43.522;1.348;2023-05-20T14:31:41;6.82;;;2.20;;
80307;SDS011;69616;43.522;1.348;2023-05-20T14:34:06;5.80;;;2.43;;
80307;SDS011;69616;43.522;1.348;2023-05-20T14:36:32;9.43;;;2.50;;
80307;SDS011;69616;43.522;1.348;2023-05-20T14:38:57;11.23;;;2.10;;
80307;SDS011;69616;43.522;1.348;2023-05-20T14:41:23;7.73;;;2.20;;
80307;SDS011;69616;43.522;1.348;2023-05-20T14:43:48;9.60;;;2.40;;
80307;SDS011;69616;43.522;1.348;2023-05-20T14:46:13;8.23;;;1.80;;
80307;SDS011;69616;43.522;1.348;2023-05-20T14:48:39;6.20;;;2.10;;